Impacts METAR Board INFO
IDs:

KFLL - Ft Lauderdale-Hollyw, FL, US

Updated at: 0640 UTC 12 Dec 2017
Potential Impact None Slight Moderate High
Time11/18Z 11/19Z 11/20Z 11/21Z 11/22Z 11/23Z 12/00Z 12/01Z 12/02Z 12/03Z 12/04Z 12/05Z 12/06Z
VIS10 10 10 10 10 10 10 10 10 10 10 10 10
CIG-- -- -- -- -- -- -- -- -- -- -- -- --
CoverFEWCLRFEWFEWFEWFEWFEWFEWFEWFEWCLRCLRCLR
FltCatVFRVFRVFRVFRVFRVFRVFRVFRVFRVFRVFRVFRVFR
WX--------------------------
WDir30003403103103103203203203103400
WSpd4 0 0 5 5 5 6 5 4 5 4 3 0
WGst-- -- -- -- -- -- -- -- -- -- -- -- --
Raw hourly METARs
KFLL 111753Z 03004KT 10SM FEW035 FEW250 18/M01 A3018 RMK AO2 SLP218 T01831006 10183 20094 58034
KFLL 111853Z 00000KT 10SM CLR 18/M03 A3016 RMK AO2 SLP212 T01831028
KFLL 111953Z 00000KT 10SM FEW250 19/M02 A3015 RMK AO2 SLP207 T01941017 $
KFLL 112053Z 34005KT 10SM FEW250 19/M02 A3014 RMK AO2 SLP207 T01941017 56012 $
KFLL 112153Z 31005KT 10SM FEW250 18/M04 A3014 RMK AO2 SLP206 T01831039 $
KFLL 112253Z 31005KT 10SM FEW250 16/M01 A3015 RMK AO2 SLP208 T01611006 $
KFLL 112353Z 31006KT 10SM FEW250 14/06 A3016 RMK AO2 SLP212 T01440061 10200 20144 53006 $
KFLL 120053Z 32005KT 10SM FEW250 13/06 A3017 RMK AO2 SLP215 T01280061 $
KFLL 120153Z 32004KT 10SM FEW250 12/06 A3017 RMK AO2 SLP216 T01220056 $
KFLL 120253Z 32005KT 10SM FEW250 12/05 A3018 RMK AO2 SLP219 T01220050 52006 $
KFLL 120353Z 31004KT 10SM CLR 12/06 A3017 RMK AO2 SLP216 T01170056 $
KFLL 120453Z 34003KT 10SM CLR 11/07 A3015 RMK AO2 SLP209 T01110067 402000089 $
KFLL 120553Z 00000KT 10SM CLR 11/07 A3013 RMK AO2 SLP202 T01110072 10144 20111 58016 $